Florence, KS (66851)

5:36 AM CDT on July 11, 2014 (GMT -0500)
Marion County Lake (KKSMARIO2) Elev 1362 ft | 38.32 °N, 96.99 °W | Change Station

Current weather conditions updated 0 second ago

Clear
Clear
68.9 °F
Feels Like 68.9 °F
N
2.2
Wind Variable Wind from West
Gusts 4.5 mph

Today is forecast to be Much Warmer than yesterday.

Today
High -- | Low -- °F
--% Chance of Precip.
Yesterday
High -- | Low -- °F
Precip. -- in
6:13 AM 8:52 PM
Waxing Gibbous, 98% visible
Pressure 30.03 in
Visibility 10.0 miles
Clouds Clear
Dew Point 67 °F
Humidity 93%
Rainfall 0.00 in
Snow Depth Not available.
UV 0 out of 12
Pollen .50 out of 12
Air Quality Not available.
Flu Activity No Activity
METAR KEWK 111015Z AUTO 16009KT 10SM CLR 19/16 A3003 RMK AO1

More Conditions Fewer Conditions

Pressure 30.03 in
Visibility 10.0 miles
Clouds Clear
Dew Point 67 °F
Humidity 93%
Rainfall 0.00 in
Snow Depth Not available.
UV 0 out of 12
Pollen .50 out of 12
Air Quality Not available.
Flu Activity No Activity
METAR KEWK 111015Z AUTO 16009KT 10SM CLR 19/16 A3003 RMK AO1

More Conditions Fewer Conditions

10-Day Weather Forecast

Almanac

Astronomy

Jul. 11, 2014 Rise Set
Actual Time 6:13 AM CDT 8:52 PM CDT
Civil Twilight 5:42 AM CDT 9:23 PM CDT
Nautical Twilight 5:04 AM CDT 10:01 PM CDT
Astronomical Twilight 4:20 AM CDT 10:45 PM CDT
Moon 8:04 PM CDT 5:26 AM CDT
Length of Visible Light 15h 40m
Length of Day
14h 38m
Tomorrow will be 1m 7s shorter.
Waxing Gibbous, 98% of the Moon is Illuminated
Today
Waxing Gibbous
Jul 12
Full
Jul 18
Last Quarter
Jul 26
New
Aug 3
First Quarter

Today's Extremes

State Highs State Lows

Community

WunderPhotos

Upload Photos

1,732,407 photos uploaded!

WunderBlogs® & News

Nearby

Snow Depth

Station Depth Elevation
No new snow has been reported.

Earthquake Activity

City Distance Mag. Time & Date
Medford, Oklahoma 113 miles 3.2 11:10 PM CDT
2014-07-05
Minimum magnitude displayed is 2.5.

Coastal Water Temperatures

Place Temperature
No Stations Reporting

Nearby Weather Stations

Station Location Temp. Dew Point Humidity Wind Precip. Elev Updated Type
Marion County Lake, Marion, KS 68.9 °F 67 °F 93% West  at  2.2 mph 0.00 in / hr 1362 ft 5:36 AM CDT Rapid Fire
HADS COTTONWOOD RIVER AT MARION LAKE KS, Marion, KS 67 °F 65 °F 93% SSE  at  10 mph 0.00 in / hr 1369 ft 4:00 AM CDT MADIS
Goessel Goerzen Corner, Goessel, KS 67.6 °F 66 °F 95% SE  at  5.0 mph 0.00 in / hr 1539 ft 5:36 AM CDT Rapid Fire
APRSWXNET Goessel KS U, North Newton, KS 68 °F 67 °F 95% SSW  at  6 mph 0.00 in / hr 1515 ft 4:43 AM CDT MADIS
CookFarm, Whitewater, KS 67.8 °F 65 °F 79% ESE  at  9.0 mph 0.00 in / hr 1421 ft 5:36 AM CDT Rapid Fire
MesoWest DURHAM , Durham, KS 66 °F - - North  at  - 0.00 in / hr 1453 ft 3:45 AM CDT MADIS
RAWS TALLGRASS PRAIRIE KS, Strong City, KS 69 °F 66 °F 90% NW  at  9 mph 0.00 in / hr 1230 ft 4:30 AM CDT MADIS

Show More Stations Show Fewer Stations